Bei Facebook empfehlenBei Twitter postenGoogle plusPinterest

Das Wetter im Erzgebirge am 20.11.2015

Wetter und Klima am 20.11.2015 Holzhau im Erzgebirge (630m ü.NN)
Letzte gemessene Temperatur und Uhrzeit der Messung23:45:00 Uhr1.90 °C
Temperatur (Maximum / Höchstwert) und Uhrzeit der Messung00:15:00 Uhr5.90 °C
Temperatur (Minimum / Tiefstwert) und Uhrzeit der Messung23:45:001.90 °C
Errechneter Absolutwert der Temperaturschwankungen zwischen Tmin und Tmax des Tages4.00 K
Errechnete Tagesmitteltemperatur3.98750 °C
Gesamt - Niederschlag des Tages (in flüssiger Form)7.77 Liter / m²
Luftdruck (Maximum / Höchstwert) und Zeitpunkt der Messung08:30:00 Uhr1004.10 hPa
Luftdruck (Minimum / Tiefstwert) und Zeitpunkt der Messung23:15:00 Uhr993.60 hPa
Errechneter Absolutwert der Luftdruckschwankungen des Tages10.50 hPa
Höchste gemessene Windgeschwindigkeit und Uhrzeit der Messung05:45:00 Uhr183.60 km/h
Errechnete Windhäufigkeit in Relation zu den Messwerten des Tages27.08333 %
Niedrigste Windkühle (Windchill) und Zeitpunkt der Messung05:45:00 Uhr-6.30 °C
Taupunkt (Maximum / Höchstwert) und Uhrzeit der Messung11:15:00 Uhr4.90 °C
Taupunkt (Minimum / Tiefstwert) und Uhrzeit der Messung23:00:001.10 °C
Anzahl der automatisch eingelesenen Messwerte 96

Detaillierte Wetter- und Klima- Messwerte für den 20.11.2015 in Holzhau im Erzgebirge (630m ü.NN)
ZeitTemperaturLuftdruckRel. LuftfeuchteWindWindrichtungWindchillTaupunktNiederschlag l/m²
23:45:001.90 °C993.70 hPa95.00 %1.20 °C7.77
23:30:001.90 °C993.70 hPa95.00 %3.24 km/hW1.90 °C1.20 °C7.77
23:15:001.90 °C993.60 hPa95.00 %1.20 °C7.77
23:00:002.00 °C993.70 hPa94.00 %9.36 km/hNW-0.80 °C1.10 °C7.77
22:45:002.10 °C993.60 hPa94.00 %1.20 °C7.77
22:30:002.20 °C993.80 hPa94.00 %1.30 °C7.77
22:15:002.30 °C994.10 hPa94.00 %4.68 km/hNW2.30 °C1.40 °C7.77
22:00:002.30 °C993.90 hPa94.00 %1.40 °C7.77
21:45:002.40 °C994.20 hPa94.00 %1.50 °C7.77
21:30:002.30 °C994.30 hPa94.00 %1.40 °C7.77
21:15:002.40 °C994.30 hPa94.00 %1.50 °C7.77
21:00:002.40 °C994.40 hPa94.00 %1.50 °C7.77
20:45:002.50 °C994.20 hPa94.00 %1.60 °C7.77
20:30:002.60 °C994.40 hPa94.00 %1.70 °C7.77
20:15:002.60 °C994.70 hPa94.00 %1.44 km/hWNW2.60 °C1.70 °C7.77
20:00:002.60 °C994.80 hPa94.00 %1.70 °C7.77
19:45:002.50 °C994.80 hPa94.00 %1.60 °C7.77
19:30:002.50 °C994.90 hPa94.00 %1.60 °C7.77
19:15:002.40 °C995.10 hPa94.00 %1.50 °C7.77
19:00:002.40 °C995.20 hPa94.00 %1.50 °C7.77
18:45:002.40 °C995.30 hPa94.00 %1.50 °C7.77
18:30:002.40 °C995.90 hPa94.00 %1.50 °C7.77
18:15:002.40 °C996.10 hPa94.00 %1.50 °C7.77
18:00:002.30 °C996.30 hPa94.00 %1.40 °C7.77
17:45:002.30 °C996.50 hPa93.00 %1.30 °C7.77
17:30:002.30 °C996.60 hPa93.00 %1.30 °C7.77
17:15:002.40 °C997.00 hPa93.00 %1.40 °C7.25
17:00:002.70 °C997.30 hPa93.00 %1.70 °C7.25
16:45:002.80 °C997.20 hPa93.00 %1.80 °C6.74
16:30:002.80 °C997.20 hPa93.00 %1.80 °C6.22
16:15:002.80 °C997.20 hPa93.00 %1.80 °C6.22
16:00:002.90 °C997.60 hPa93.00 %1.90 °C6.22
15:45:002.80 °C997.40 hPa93.00 %1.80 °C5.70
15:30:002.90 °C997.80 hPa93.00 %1.90 °C5.70
15:15:003.00 °C998.00 hPa92.00 %1.80 °C5.70
15:00:003.50 °C998.30 hPa92.00 %2.30 °C4.66
14:45:003.70 °C998.50 hPa92.00 %2.50 °C4.15
14:30:003.90 °C998.40 hPa92.00 %2.70 °C4.15
14:15:004.20 °C999.10 hPa92.00 %3.00 °C4.15
14:00:004.60 °C999.40 hPa92.00 %3.40 °C4.15
13:45:005.30 °C999.70 hPa92.00 %4.10 °C4.15
13:30:005.50 °C999.20 hPa93.00 %4.50 °C4.15
13:15:005.60 °C999.70 hPa93.00 %4.60 °C4.15
13:00:005.80 °C1000.10 hPa93.00 %2.88 km/hWNW5.80 °C4.80 °C4.15
12:45:005.80 °C1000.60 hPa93.00 %9.00 km/hWSW3.80 °C4.80 °C4.15
12:30:005.80 °C1000.80 hPa93.00 %5.04 km/hSW5.00 °C4.80 °C4.15
12:15:005.60 °C1001.10 hPa94.00 %4.70 °C4.15
12:00:005.60 °C1001.40 hPa94.00 %11.16 km/hSSW3.10 °C4.70 °C4.15
11:45:005.60 °C1001.60 hPa94.00 %4.70 °C4.15
11:30:005.60 °C1001.90 hPa94.00 %4.70 °C4.15
11:15:005.60 °C1002.20 hPa95.00 %7.92 km/hSW3.90 °C4.90 °C4.15
11:00:005.40 °C1002.60 hPa95.00 %8.28 km/hWSW3.50 °C4.70 °C4.15
10:45:005.30 °C1002.80 hPa95.00 %3.60 km/hWSW5.30 °C4.60 °C4.15
10:30:005.30 °C1002.90 hPa95.00 %4.60 °C4.15
10:15:005.10 °C1002.80 hPa95.00 %10.44 km/hSW2.70 °C4.40 °C4.15
10:00:004.90 °C1002.90 hPa95.00 %4.20 °C4.15
09:45:004.80 °C1003.20 hPa95.00 %4.10 °C4.15
09:30:004.70 °C1003.30 hPa95.00 %4.00 °C4.15
09:15:004.50 °C1003.40 hPa95.00 %3.80 °C4.15
09:00:004.40 °C1003.50 hPa95.00 %3.70 °C4.15
08:45:004.30 °C1003.60 hPa95.00 %3.60 °C4.15
08:30:004.20 °C1004.10 hPa95.00 %3.50 °C4.15
08:15:004.10 °C1004.10 hPa95.00 %3.40 °C4.15
08:00:004.10 °C1003.60 hPa95.00 %3.40 °C4.15
07:45:004.10 °C1003.80 hPa95.00 %3.40 °C4.15
07:30:004.10 °C1003.90 hPa95.00 %3.40 °C4.15
07:15:004.10 °C1003.90 hPa95.00 %3.40 °C4.15
07:00:004.10 °C1003.90 hPa95.00 %4.32 km/hWSW4.10 °C3.40 °C4.15
06:45:004.10 °C1003.90 hPa95.00 %3.40 °C4.15
06:30:004.20 °C1003.50 hPa95.00 %3.50 °C4.15
06:15:004.30 °C1003.50 hPa95.00 %3.96 km/hWNW4.30 °C3.60 °C4.15
06:00:004.30 °C1003.70 hPa95.00 %7.20 km/hNW2.50 °C3.60 °C4.15
05:45:004.40 °C1004.10 hPa95.00 %183.60 km/hNW-6.30 °C3.70 °C4.15
05:30:004.40 °C1003.90 hPa95.00 %4.68 km/hWNW4.40 °C3.70 °C4.15
05:15:004.40 °C1003.80 hPa95.00 %3.70 °C4.15
05:00:004.40 °C1003.90 hPa95.00 %3.96 km/hNW4.40 °C3.70 °C4.15
04:45:004.40 °C1004.00 hPa95.00 %2.88 km/hWNW4.40 °C3.70 °C3.63
04:30:004.40 °C1003.60 hPa95.00 %6.12 km/hNW3.00 °C3.70 °C3.63
04:15:004.40 °C1003.60 hPa95.00 %3.70 °C3.63
04:00:004.40 °C1003.50 hPa95.00 %3.70 °C3.63
03:45:004.50 °C1003.50 hPa94.00 %3.60 °C3.63
03:30:004.50 °C1003.60 hPa94.00 %3.60 °C3.63
03:15:004.80 °C1003.70 hPa94.00 %3.90 °C3.63
03:00:005.00 °C1003.60 hPa94.00 %4.10 °C3.63
02:45:005.10 °C1003.20 hPa94.00 %3.24 km/hNW5.10 °C4.20 °C3.63
02:30:005.20 °C1003.40 hPa94.00 %6.48 km/hNW3.80 °C4.30 °C3.11
02:15:005.40 °C1003.50 hPa94.00 %4.50 °C3.11
02:00:005.60 °C1003.40 hPa94.00 %10.08 km/hWSW3.40 °C4.70 °C3.11
01:45:005.60 °C1003.30 hPa94.00 %3.96 km/hWNW5.60 °C4.70 °C2.59
01:30:005.60 °C1003.30 hPa94.00 %4.70 °C2.59
01:15:005.70 °C1003.40 hPa94.00 %4.80 °C2.07
01:00:005.70 °C1003.40 hPa94.00 %4.80 °C1.56
00:45:005.80 °C1003.40 hPa94.00 %2.88 km/hWNW5.80 °C4.90 °C1.56
00:30:005.80 °C1003.60 hPa93.00 %4.80 °C1.04
00:15:005.90 °C1003.80 hPa93.00 %3.60 km/hNNW5.90 °C4.90 °C1.04
00:00:005.90 °C1003.80 hPa93.00 %4.90 °C 

Permanenter Link zu dieser Seite: Wetter im Erzgebirge am 20.11.2015
Performance-Info: Die Erstellung der Seite / Statistik(en) / Tabelle(n) erforderte 5 Datenbankserver-Abfrage(n) und dauerte 101 Millisekunden. (Dieser Messwert ist von der Gesamt-Auslastung des Servers abhängig.)
Erzgebirge - Wetter | Erzgebirge - Wetter (Mobilgeräte) | Komplette Klimadatenbank